Time;durP1;ratioP1;P1;durP2;ratioP2;P2;SDS_P1;SDS_P2;PMS_P1;PMS_P2;Temp;Humidity;BMP_temperature;BMP_pressure;BME280_temperature;BME280_humidity;BME280_pressure;Samples;Min_cycle;Max_cycle;Signal;HPM_P1;HPM_P2
2021/09/19 00:02:24;;;;;;;5.40;3.03;;;;;;;14.63;81.98;101027.50;5084806;28;20226;-73
2021/09/19 00:04:51;;;;;;;4.77;2.97;;;;;;;14.63;81.64;101038.25;5073293;28;20203;-73
2021/09/19 00:07:18;;;;;;;6.10;3.50;;;;;;;14.59;81.40;101034.91;5071961;28;20215;-73
2021/09/19 00:09:44;;;;;;;4.77;3.23;;;;;;;14.58;81.34;101035.88;5071661;28;20211;-73
2021/09/19 00:12:11;;;;;;;5.83;3.10;;;;;;;14.57;81.26;101031.50;5071825;28;20229;-73
2021/09/19 00:14:39;;;;;;;4.83;2.93;;;;;;;14.56;81.21;101030.63;5071211;28;20204;-73
2021/09/19 00:17:05;;;;;;;3.63;3.20;;;;;;;14.55;81.01;101026.25;5071539;28;20291;-73
2021/09/19 00:19:32;;;;;;;4.37;3.33;;;;;;;14.57;81.40;101023.47;5071259;28;20224;-73
2021/09/19 00:21:59;;;;;;;5.03;3.20;;;;;;;14.54;81.26;101021.84;5051824;28;20602;-73
2021/09/19 00:24:25;;;;;;;5.07;3.40;;;;;;;14.53;81.08;101020.13;5051972;28;20586;-73
2021/09/19 00:26:52;;;;;;;4.13;3.00;;;;;;;14.53;80.80;101027.31;5071177;28;20280;-73
2021/09/19 00:29:18;;;;;;;4.80;3.27;;;;;;;14.52;81.24;101026.47;5071445;28;20211;-72
2021/09/19 00:31:46;;;;;;;5.40;3.50;;;;;;;14.51;81.01;101022.06;5070570;28;20221;-73
2021/09/19 00:34:13;;;;;;;8.07;3.53;;;;;;;14.50;80.81;101023.06;5072043;28;20211;-73
2021/09/19 00:36:40;;;;;;;3.70;3.17;;;;;;;14.47;80.66;101020.63;5072258;28;20291;-73
2021/09/19 00:39:07;;;;;;;5.33;3.13;;;;;;;14.46;81.06;101023.41;5070889;28;20200;-73
2021/09/19 00:41:35;;;;;;;3.97;3.50;;;;;;;14.45;80.63;101021.69;5070958;28;20236;-73
2021/09/19 00:44:05;;;;;;;3.43;2.97;;;;;;;14.46;80.90;101028.75;5070371;28;20235;-73
2021/09/19 00:46:32;;;;;;;3.57;3.27;;;;;;;14.45;80.93;101027.91;5070180;28;20205;-73
2021/09/19 00:49:00;;;;;;;3.57;3.27;;;;;;;14.43;80.94;101027.16;5077067;28;20389;-73
2021/09/19 00:51:27;;;;;;;7.03;3.50;;;;;;;14.43;80.68;101031.66;5076525;28;20227;-73
2021/09/19 00:53:56;;;;;;;6.27;3.57;;;;;;;14.42;80.66;101028.13;5071934;28;20293;-73
2021/09/19 00:56:26;;;;;;;5.00;3.60;;;;;;;14.40;80.95;101024.69;5071136;28;20209;-73
2021/09/19 00:58:55;;;;;;;6.40;3.20;;;;;;;14.40;80.91;101031.84;5069778;28;20292;-72
2021/09/19 01:01:21;;;;;;;7.43;3.80;;;;;;;14.39;80.93;101025.63;5070357;28;20224;-73
2021/09/19 01:03:48;;;;;;;4.87;3.47;;;;;;;14.39;81.31;101011.38;5070568;28;20300;-73
2021/09/19 01:06:17;;;;;;;5.10;3.70;;;;;;;14.38;81.22;101010.53;5071100;28;20227;-73
2021/09/19 01:08:44;;;;;;;7.80;4.03;;;;;;;14.38;81.59;101007.00;5076295;28;20672;-73
2021/09/19 01:11:12;;;;;;;5.83;3.80;;;;;;;14.35;81.17;101013.41;5089790;28;20227;-73
2021/09/19 01:13:41;;;;;;;6.73;3.97;;;;;;;14.34;81.20;101010.84;5077841;28;20712;-73
2021/09/19 01:16:09;;;;;;;5.43;4.17;;;;;;;14.32;81.35;100999.41;5077464;28;20790;-73
2021/09/19 01:18:37;;;;;;;6.23;4.17;;;;;;;14.30;81.34;100998.69;5084524;28;20196;-73
2021/09/19 01:21:03;;;;;;;6.87;4.13;;;;;;;14.28;81.88;100998.78;5070320;28;20599;-73
2021/09/19 01:23:31;;;;;;;7.13;4.30;;;;;;;14.28;81.91;100995.25;5070968;28;20200;-73
2021/09/19 01:25:59;;;;;;;5.73;3.57;;;;;;;14.25;81.79;100996.31;5070993;28;20593;-73
2021/09/19 01:28:26;;;;;;;5.73;3.87;;;;;;;14.23;81.98;100993.75;5078585;28;20240;-73
2021/09/19 01:30:53;;;;;;;5.17;4.13;;;;;;;14.22;82.04;100992.03;5074016;28;20223;-73
2021/09/19 01:33:20;;;;;;;5.33;4.07;;;;;;;14.20;81.80;100995.78;5069993;28;20292;-73
2021/09/19 01:35:47;;;;;;;5.47;4.50;;;;;;;14.19;82.14;100999.44;5070405;28;20743;-73
2021/09/19 01:38:13;;;;;;;8.83;4.87;;;;;;;14.17;82.08;101002.22;5069757;28;20203;-73
2021/09/19 01:40:41;;;;;;;5.23;4.17;;;;;;;14.16;82.49;100999.66;5070210;28;20706;-73
2021/09/19 01:43:08;;;;;;;5.80;4.13;;;;;;;14.15;82.65;101001.47;5070840;28;20296;-73
2021/09/19 01:45:34;;;;;;;5.80;3.80;;;;;;;14.15;82.46;101000.66;5070714;28;20212;-73
2021/09/19 01:48:01;;;;;;;8.10;4.87;;;;;;;14.14;82.38;100999.78;5071251;28;20208;-73
2021/09/19 01:50:28;;;;;;;6.40;4.13;;;;;;;14.14;82.41;101001.63;5084675;28;20217;-73
2021/09/19 01:52:56;;;;;;;6.53;4.73;;;;;;;14.14;82.59;100998.94;5067270;28;20201;-73
2021/09/19 01:55:23;;;;;;;6.10;4.43;;;;;;;14.14;82.47;101001.63;5077554;28;20200;-73
2021/09/19 01:57:51;;;;;;;5.97;4.40;;;;;;;14.13;82.89;100997.22;5080976;28;20290;-73
2021/09/19 02:00:18;;;;;;;5.90;4.17;;;;;;;14.11;82.90;100996.47;5068934;28;20225;-73
2021/09/19 02:02:44;;;;;;;9.43;4.57;;;;;;;14.09;82.91;100995.72;5076878;28;20204;-73
2021/09/19 02:05:12;;;;;;;7.17;3.90;;;;;;;14.08;82.70;100996.69;5082530;28;20288;-73
2021/09/19 02:07:39;;;;;;;9.53;4.43;;;;;;;14.06;82.40;100998.63;5073301;28;20212;-73
2021/09/19 02:10:09;;;;;;;6.83;4.43;;;;;;;14.05;82.80;101000.44;5073296;28;20651;-73
2021/09/19 02:12:36;;;;;;;4.83;4.17;;;;;;;14.03;82.42;100997.03;5074149;28;20204;-73
2021/09/19 02:15:06;;;;;;;6.23;4.50;;;;;;;14.02;82.84;100994.44;5073497;28;20211;-73
2021/09/19 02:17:33;;;;;;;5.43;4.30;;;;;;;14.00;82.84;100997.25;5074043;28;20205;-73
2021/09/19 02:20:00;;;;;;;8.00;4.63;;;;;;;13.98;82.47;100998.31;5073439;28;20722;-73
2021/09/19 02:22:27;;;;;;;7.90;4.73;;;;;;;13.97;82.46;100999.31;5073922;28;20231;-72
2021/09/19 02:24:54;;;;;;;5.03;4.40;;;;;;;13.96;82.70;100997.59;5073525;28;20288;-73
2021/09/19 02:27:21;;;;;;;7.20;4.57;;;;;;;13.94;82.69;100996.84;5073108;28;20288;-73
2021/09/19 02:29:48;;;;;;;8.23;4.13;;;;;;;13.94;82.87;100991.50;5073033;28;20208;-73
2021/09/19 02:32:17;;;;;;;7.50;4.60;;;;;;;13.92;82.55;100983.56;5073851;28;20225;-73
2021/09/19 02:34:43;;;;;;;6.77;4.67;;;;;;;13.92;82.61;100988.06;5073209;28;20201;-73
2021/09/19 02:37:10;;;;;;;5.23;4.37;;;;;;;13.89;83.04;100990.00;5073736;28;20287;-73
2021/09/19 02:39:37;;;;;;;5.53;4.20;;;;;;;13.90;82.77;100991.69;5073158;28;20682;-73
2021/09/19 02:42:03;;;;;;;5.47;3.80;;;;;;;13.88;82.40;100993.63;5073225;28;20224;-73
2021/09/19 02:44:30;;;;;;;5.50;4.33;;;;;;;13.87;82.42;100986.56;5073535;28;20201;-73
2021/09/19 02:46:57;;;;;;;5.87;4.37;;;;;;;13.85;82.18;100982.28;5073531;28;20201;-73
2021/09/19 02:49:25;;;;;;;7.43;4.83;;;;;;;13.80;82.67;100993.31;5073427;28;20205;-72
2021/09/19 02:51:51;;;;;;;5.63;4.40;;;;;;;13.77;82.66;100990.88;5073092;28;20224;-73
2021/09/19 02:54:19;;;;;;;6.53;4.73;;;;;;;13.72;82.53;100987.66;5073639;28;20292;-73
2021/09/19 02:56:45;;;;;;;6.50;4.20;;;;;;;13.71;82.33;100993.13;5071224;28;20207;-73
2021/09/19 02:59:12;;;;;;;9.57;4.53;;;;;;;13.68;82.27;100986.16;5072693;28;20211;-73
2021/09/19 03:01:38;;;;;;;6.90;4.57;;;;;;;13.65;82.32;100991.72;5072309;28;20228;-72
2021/09/19 03:04:05;;;;;;;7.17;4.83;;;;;;;13.66;82.41;100990.75;5073047;28;20288;-73
2021/09/19 03:06:33;;;;;;;8.70;4.83;;;;;;;13.64;82.24;100987.34;5073195;28;20312;-72
2021/09/19 03:09:00;;;;;;;5.60;4.40;;;;;;;13.62;82.79;100986.59;5072545;28;20204;-73
2021/09/19 03:11:26;;;;;;;5.50;4.70;;;;;;;13.61;82.60;100984.91;5074358;28;20235;-72
2021/09/19 03:13:53;;;;;;;5.67;4.77;;;;;;;13.60;82.84;100988.53;5072514;28;20297;-72
2021/09/19 03:16:20;;;;;;;5.87;5.17;;;;;;;13.60;82.30;100985.00;5072825;28;20293;-72
2021/09/19 03:18:46;;;;;;;8.03;4.90;;;;;;;13.59;82.41;100985.97;5071988;28;20207;-72
2021/09/19 03:21:13;;;;;;;4.83;4.33;;;;;;;13.57;82.67;100983.41;5072706;28;20235;-73
2021/09/19 03:23:41;;;;;;;8.20;5.23;;;;;;;13.54;82.25;100978.25;5072821;28;20200;-72
2021/09/19 03:26:07;;;;;;;6.83;4.60;;;;;;;13.52;82.21;100980.19;5072858;28;20674;-72
2021/09/19 03:28:34;;;;;;;6.77;5.20;;;;;;;13.48;82.58;100990.22;5072356;28;20224;-72
2021/09/19 03:31:01;;;;;;;9.57;5.13;;;;;;;13.45;82.70;100979.75;5072105;28;20220;-72
2021/09/19 03:33:28;;;;;;;5.93;5.10;;;;;;;13.43;82.26;100980.84;5072160;28;20204;-72
2021/09/19 03:35:54;;;;;;;8.07;4.83;;;;;;;13.43;82.18;100981.69;5072008;28;20652;-72
2021/09/19 03:38:21;;;;;;;6.97;5.03;;;;;;;13.42;82.48;100979.13;5072642;28;20697;-72
2021/09/19 03:40:49;;;;;;;8.90;4.90;;;;;;;13.40;82.80;100975.69;5072671;28;20235;-72
2021/09/19 03:43:15;;;;;;;6.30;4.80;;;;;;;13.39;83.02;100974.84;5071218;28;20223;-72
2021/09/19 03:45:42;;;;;;;6.67;4.53;;;;;;;13.39;82.64;100980.19;5072409;28;20303;-72
2021/09/19 03:48:09;;;;;;;5.00;4.50;;;;;;;13.37;82.38;100981.25;5071527;28;20201;-72
2021/09/19 03:50:37;;;;;;;5.67;4.80;;;;;;;13.35;82.94;100972.47;5072055;28;20223;-72
2021/09/19 03:53:04;;;;;;;6.53;4.70;;;;;;;13.32;82.66;100978.91;5072032;28;20196;-72
2021/09/19 03:55:31;;;;;;;8.77;5.00;;;;;;;13.29;82.39;100973.75;5071910;28;20648;-72
2021/09/19 03:57:59;;;;;;;7.70;4.90;;;;;;;13.29;82.50;100972.91;5072138;28;20205;-72
2021/09/19 04:00:26;;;;;;;6.53;4.80;;;;;;;13.28;82.60;100976.53;5071122;28;20235;-72
2021/09/19 04:02:53;;;;;;;6.07;4.67;;;;;;;13.28;82.71;100976.53;5071640;28;20296;-73
2021/09/19 04:05:19;;;;;;;9.53;4.73;;;;;;;13.24;82.86;100983.06;5071430;28;20291;-73
2021/09/19 04:07:46;;;;;;;6.73;4.63;;;;;;;13.23;82.62;100981.38;5087466;28;20648;-72
2021/09/19 04:10:13;;;;;;;7.60;4.80;;;;;;;13.20;83.03;100979.75;5085069;28;20209;-72
2021/09/19 04:12:41;;;;;;;7.20;5.17;;;;;;;13.17;83.06;100986.16;5072030;28;20201;-72
2021/09/19 04:15:10;;;;;;;9.03;4.97;;;;;;;13.14;82.70;100982.81;5071709;28;20205;-72
2021/09/19 04:17:37;;;;;;;8.07;4.43;;;;;;;13.12;82.94;100984.72;5071462;28;20585;-73
2021/09/19 04:20:05;;;;;;;6.10;4.63;;;;;;;13.09;82.81;100987.59;5071585;28;20194;-72
2021/09/19 04:22:32;;;;;;;8.83;4.97;;;;;;;13.06;83.02;100982.50;5071507;28;20714;-72
2021/09/19 04:24:59;;;;;;;8.70;5.00;;;;;;;13.04;83.15;100984.41;5072067;28;20288;-72
2021/09/19 04:27:26;;;;;;;5.30;4.80;;;;;;;13.01;82.82;100984.63;5070615;28;20201;-72
2021/09/19 04:29:53;;;;;;;8.10;5.20;;;;;;;12.99;83.17;100982.03;5070871;28;20214;-72
2021/09/19 04:32:21;;;;;;;7.33;5.10;;;;;;;12.96;83.37;100995.63;5071086;28;20735;-72
2021/09/19 04:34:48;;;;;;;7.70;4.90;;;;;;;12.94;82.98;100994.00;5071443;28;20295;-72
2021/09/19 04:37:16;;;;;;;6.80;5.23;;;;;;;12.91;83.00;100989.72;5071420;28;20215;-72
2021/09/19 04:39:43;;;;;;;6.67;5.20;;;;;;;12.89;83.24;100998.81;5070786;28;20670;-72
2021/09/19 04:42:13;;;;;;;10.20;5.13;;;;;;;12.88;83.53;101000.63;5071299;28;20323;-72
2021/09/19 04:44:40;;;;;;;8.50;5.33;;;;;;;12.85;83.73;100999.03;5071152;28;20258;-72
2021/09/19 04:47:06;;;;;;;5.93;5.10;;;;;;;12.84;83.75;101001.78;5071199;28;20204;-72
2021/09/19 04:49:35;;;;;;;7.37;5.23;;;;;;;12.82;83.70;100996.56;5071240;28;20300;-72
2021/09/19 04:52:02;;;;;;;7.10;5.33;;;;;;;12.80;83.41;100998.47;5070947;28;20227;-72
2021/09/19 04:54:28;;;;;;;9.33;5.47;;;;;;;12.79;83.60;101001.25;5071195;28;20585;-72
2021/09/19 04:56:55;;;;;;;8.33;5.27;;;;;;;12.78;84.11;101002.19;5071021;28;20205;-72
2021/09/19 04:59:21;;;;;;;6.13;4.97;;;;;;;12.76;83.87;100994.28;5070542;28;20254;-72
2021/09/19 05:01:48;;;;;;;6.40;4.97;;;;;;;12.76;84.34;101006.78;5069719;28;20235;-72
2021/09/19 05:04:15;;;;;;;9.53;5.53;;;;;;;12.74;84.30;100996.19;5071130;28;20671;-72
2021/09/19 05:06:43;;;;;;;8.17;5.17;;;;;;;12.73;84.01;101006.97;5067078;28;20214;-72
2021/09/19 05:09:09;;;;;;;6.53;5.43;;;;;;;12.71;84.22;100999.09;5067518;28;20675;-72
2021/09/19 05:11:36;;;;;;;7.43;5.47;;;;;;;12.71;84.16;100998.25;5069211;28;20331;-72
2021/09/19 05:14:03;;;;;;;5.80;4.97;;;;;;;12.69;84.24;101000.16;5068642;28;20211;-72
2021/09/19 05:16:30;;;;;;;7.00;4.93;;;;;;;12.69;84.54;100995.66;5069447;28;20296;-72
2021/09/19 05:18:57;;;;;;;8.47;5.70;;;;;;;12.70;84.63;100999.19;5069964;28;20738;-72
2021/09/19 05:21:24;;;;;;;8.10;5.20;;;;;;;12.69;84.77;101005.50;5090932;28;20581;-72
2021/09/19 05:23:52;;;;;;;6.20;5.43;;;;;;;12.69;84.58;101005.50;5064603;28;20773;-72
2021/09/19 05:26:18;;;;;;;7.60;5.00;;;;;;;12.69;84.45;101000.16;5070686;28;20197;-72
2021/09/19 05:28:45;;;;;;;7.33;5.40;;;;;;;12.70;84.51;101002.72;5070295;28;20877;-72
2021/09/19 05:31:12;;;;;;;9.23;5.73;;;;;;;12.70;84.47;101000.06;5070138;28;20598;-72
2021/09/19 05:33:39;;;;;;;7.77;5.37;;;;;;;12.70;84.70;101001.88;5070241;28;20204;-72
2021/09/19 05:36:06;;;;;;;8.13;5.83;;;;;;;12.71;84.96;101001.78;5071037;28;20204;-72
2021/09/19 05:38:32;;;;;;;8.20;6.00;;;;;;;12.71;84.92;101008.94;5070159;28;20292;-72
2021/09/19 05:41:00;;;;;;;8.13;5.70;;;;;;;12.73;84.67;101015.00;5064825;28;20221;-72
2021/09/19 05:43:27;;;;;;;6.40;5.13;;;;;;;12.73;85.01;101009.66;5070754;28;20205;-72
2021/09/19 05:45:53;;;;;;;7.23;5.63;;;;;;;12.72;85.05;101014.13;5072099;28;20292;-72
2021/09/19 05:48:20;;;;;;;6.67;5.40;;;;;;;12.73;84.97;101009.66;5071189;28;20296;-72
2021/09/19 05:50:47;;;;;;;6.83;5.37;;;;;;;12.73;84.84;101007.84;5072535;28;20234;-72
2021/09/19 05:53:13;;;;;;;9.80;5.67;;;;;;;12.75;84.69;101010.41;5072795;28;20662;-72
2021/09/19 05:55:40;;;;;;;6.07;5.47;;;;;;;12.73;84.71;101005.16;5072656;28;20324;-72
2021/09/19 05:58:08;;;;;;;7.83;5.37;;;;;;;12.74;84.70;101009.56;5071840;28;20288;-72
2021/09/19 06:00:35;;;;;;;8.43;5.83;;;;;;;12.75;84.78;101008.59;5071785;28;20220;-72
2021/09/19 06:03:01;;;;;;;8.73;6.30;;;;;;;12.78;84.87;101015.56;5073263;28;20231;-72
2021/09/19 06:05:28;;;;;;;7.27;5.23;;;;;;;12.79;84.56;101015.47;5075697;28;20294;-72
2021/09/19 06:07:54;;;;;;;7.37;5.33;;;;;;;12.79;84.92;101014.59;5075258;28;20204;-72
2021/09/19 06:10:21;;;;;;;9.53;5.20;;;;;;;12.79;84.53;101017.28;5073434;28;20206;-73
2021/09/19 06:12:47;;;;;;;7.60;5.10;;;;;;;12.80;84.86;101019.00;5074482;28;20288;-72
2021/09/19 06:15:15;;;;;;;8.03;4.60;;;;;;;12.77;84.70;101016.50;5076290;28;20215;-72
2021/09/19 06:17:42;;;;;;;7.63;4.60;;;;;;;12.76;84.43;101020.16;5088348;28;20313;-72
2021/09/19 06:20:09;;;;;;;6.63;4.77;;;;;;;12.76;84.41;101012.13;5088437;28;20193;-72
2021/09/19 06:22:36;;;;;;;7.87;4.93;;;;;;;12.77;84.56;101013.84;5073467;28;20221;-72
2021/09/19 06:25:02;;;;;;;7.93;4.87;;;;;;;12.79;84.24;101010.13;5074196;28;20209;-72
2021/09/19 06:27:29;;;;;;;7.73;5.77;;;;;;;12.79;84.46;101014.59;5082474;28;20295;-72
2021/09/19 06:29:55;;;;;;;6.53;5.53;;;;;;;12.81;84.18;101007.34;5086645;28;20201;-72
2021/09/19 06:32:23;;;;;;;6.40;4.47;;;;;;;12.81;84.43;101015.38;5072997;28;20221;-72
2021/09/19 06:34:50;;;;;;;8.33;5.50;;;;;;;12.81;84.33;101008.19;5070393;28;20396;-72
2021/09/19 06:37:17;;;;;;;10.03;5.53;;;;;;;12.84;84.01;101012.50;5071698;28;20315;-73
2021/09/19 06:39:44;;;;;;;5.63;4.37;;;;;;;12.85;84.44;101017.72;5071280;28;20205;-72
2021/09/19 06:42:10;;;;;;;6.73;5.03;;;;;;;12.88;84.42;101015.81;5071150;28;20228;-72
2021/09/19 06:44:37;;;;;;;6.63;5.00;;;;;;;12.91;84.25;101018.25;5071672;28;20205;-72
2021/09/19 06:47:04;;;;;;;6.40;4.50;;;;;;;12.91;84.02;101016.44;5071015;28;20211;-72
2021/09/19 06:49:32;;;;;;;6.67;4.10;;;;;;;12.95;84.39;101017.09;5071180;28;20204;-72
2021/09/19 06:51:58;;;;;;;6.47;4.93;;;;;;;12.95;83.89;101017.97;5070640;28;20308;-72
2021/09/19 06:54:25;;;;;;;6.67;4.57;;;;;;;12.97;84.25;101020.53;5072643;28;20201;-72
2021/09/19 06:56:51;;;;;;;5.77;4.40;;;;;;;12.97;83.66;101020.53;5072866;28;20216;-72
2021/09/19 06:59:18;;;;;;;6.70;4.87;;;;;;;12.97;83.48;101021.38;5073498;28;20277;-73
2021/09/19 07:01:45;;;;;;;6.10;4.70;;;;;;;12.97;83.52;101023.19;5072136;28;20936;-73
2021/09/19 07:04:12;;;;;;;6.13;4.70;;;;;;;12.98;83.75;101016.91;5073930;28;20197;-73
2021/09/19 07:06:40;;;;;;;7.73;4.80;;;;;;;13.00;83.46;101009.63;5072860;28;20312;-73
2021/09/19 07:09:07;;;;;;;5.93;4.60;;;;;;;13.03;83.37;101009.44;5070955;28;20211;-72
2021/09/19 07:11:34;;;;;;;5.73;4.30;;;;;;;13.04;83.22;101011.16;5068056;28;20229;-73
2021/09/19 07:14:01;;;;;;;8.23;4.57;;;;;;;13.07;83.29;101011.81;5071171;28;20211;-72
2021/09/19 07:16:28;;;;;;;7.77;4.40;;;;;;;13.10;83.48;101016.06;5071151;28;20726;-72
2021/09/19 07:18:55;;;;;;;7.60;4.70;;;;;;;13.14;82.96;101021.09;5070344;28;20201;-72
2021/09/19 07:21:22;;;;;;;8.30;4.53;;;;;;;13.19;83.23;101015.47;5070540;28;20312;-73
2021/09/19 07:23:50;;;;;;;6.93;4.70;;;;;;;13.22;82.89;101009.06;5071913;28;20201;-73
2021/09/19 07:26:17;;;;;;;7.50;4.90;;;;;;;13.25;82.62;101009.72;5068807;28;20208;-73
2021/09/19 07:28:44;;;;;;;6.50;4.20;;;;;;;13.29;82.87;101015.69;5071588;28;20296;-73
2021/09/19 07:31:11;;;;;;;9.03;4.67;;;;;;;13.32;82.47;101016.34;5070293;28;20307;-72
2021/09/19 07:33:38;;;;;;;5.50;4.50;;;;;;;13.34;82.04;101019.78;5070953;28;20211;-72
2021/09/19 07:36:06;;;;;;;6.40;4.30;;;;;;;13.34;81.39;101016.25;5072133;28;20205;-73
2021/09/19 07:38:33;;;;;;;10.03;4.97;;;;;;;13.34;81.19;101018.91;5070000;28;20588;-73
2021/09/19 07:41:02;;;;;;;5.97;4.27;;;;;;;13.35;81.27;101023.31;5072197;28;20225;-73
2021/09/19 07:43:29;;;;;;;10.00;4.43;;;;;;;13.39;80.74;101024.81;5072163;28;20663;-73
2021/09/19 07:45:56;;;;;;;6.30;4.90;;;;;;;13.42;81.01;101022.78;5067828;28;20211;-72
2021/09/19 07:48:23;;;;;;;5.23;4.17;;;;;;;13.44;80.69;101033.34;5073129;28;20204;-72
2021/09/19 07:50:50;;;;;;;5.17;4.53;;;;;;;13.49;80.16;101036.56;5065510;28;20259;-72
2021/09/19 07:53:17;;;;;;;10.53;4.37;;;;;;;13.52;80.17;101028.34;5067166;28;20212;-72
2021/09/19 07:55:44;;;;;;;5.77;4.80;;;;;;;13.56;79.83;101024.50;5067614;28;20197;-72
2021/09/19 07:58:12;;;;;;;5.87;4.90;;;;;;;13.60;79.44;101031.34;5067661;28;20235;-72
2021/09/19 08:00:38;;;;;;;5.47;4.33;;;;;;;13.61;79.18;101026.88;5067211;28;20320;-72
2021/09/19 08:03:05;;;;;;;5.13;4.00;;;;;;;13.63;78.71;101035.63;5068238;28;20221;-72
2021/09/19 08:05:33;;;;;;;6.90;3.97;;;;;;;13.65;78.95;101039.91;5069224;28;20299;-72
2021/09/19 08:08:00;;;;;;;5.87;3.90;;;;;;;13.68;78.28;101042.38;5068058;28;20211;-72
2021/09/19 08:10:27;;;;;;;5.17;3.83;;;;;;;13.71;77.77;101049.31;5067888;28;20217;-72
2021/09/19 08:12:54;;;;;;;5.53;3.67;;;;;;;13.72;77.56;101046.56;5068108;28;20193;-72
2021/09/19 08:15:24;;;;;;;6.80;4.63;;;;;;;13.71;76.95;101043.97;5068007;28;20331;-73
2021/09/19 08:17:52;;;;;;;5.30;4.00;;;;;;;13.74;76.32;101047.31;5067087;28;20299;-72
2021/09/19 08:20:19;;;;;;;6.60;4.37;;;;;;;13.74;75.98;101043.78;5140119;22;20206;-83
2021/09/19 08:22:46;;;;;;;4.30;3.60;;;;;;;13.74;75.78;101047.31;5075076;28;20235;-81
2021/09/19 08:25:14;;;;;;;6.07;3.47;;;;;;;13.74;74.67;101047.31;5073869;28;20232;-82
2021/09/19 08:27:41;;;;;;;5.97;4.10;;;;;;;13.72;74.38;101051.03;5065945;28;20308;-81
2021/09/19 08:30:10;;;;;;;4.27;3.57;;;;;;;13.71;73.75;101052.00;5058773;28;20201;-81
2021/09/19 08:32:39;;;;;;;4.97;4.23;;;;;;;13.73;72.90;101050.09;5060272;28;20239;-82
2021/09/19 08:35:07;;;;;;;4.40;3.37;;;;;;;13.75;72.85;101058.88;5063149;28;20567;-81
2021/09/19 08:37:34;;;;;;;4.60;3.80;;;;;;;13.75;72.31;101056.19;5069116;28;20753;-81
2021/09/19 08:40:00;;;;;;;4.13;3.53;;;;;;;13.80;71.94;101057.56;5066626;28;20776;-83
2021/09/19 08:42:27;;;;;;;6.23;3.57;;;;;;;13.83;71.52;101067.19;5077534;28;20737;-81
2021/09/19 08:44:54;;;;;;;6.87;3.67;;;;;;;13.85;70.99;101066.13;5070973;28;20209;-81
2021/09/19 08:47:21;;;;;;;5.83;4.03;;;;;;;13.89;70.93;101064.09;5080182;28;20315;-81
2021/09/19 08:49:49;;;;;;;6.33;4.03;;;;;;;13.97;70.71;101071.59;5070495;28;20669;-81
2021/09/19 08:52:16;;;;;;;5.13;3.50;;;;;;;14.03;70.50;101068.47;5057805;28;20292;-81
2021/09/19 08:54:43;;;;;;;4.40;4.00;;;;;;;14.06;70.26;101076.28;5072295;28;20209;-81
2021/09/19 08:57:10;;;;;;;6.00;4.10;;;;;;;14.10;70.36;101078.66;5073213;28;20320;-81
2021/09/19 08:59:47;;;;;;;5.50;4.20;;;;;;;14.13;70.16;101078.44;5070500;28;20219;-82
2021/09/19 09:02:15;;;;;;;5.60;3.87;;;;;;;14.15;69.52;101079.16;5067222;28;20231;-82
2021/09/19 09:04:42;;;;;;;5.30;3.93;;;;;;;14.15;69.66;101079.16;5059656;28;20208;-81
2021/09/19 09:07:11;;;;;;;4.57;4.03;;;;;;;14.14;69.28;101079.28;5074621;28;20324;-81
2021/09/19 09:09:38;;;;;;;4.60;4.10;;;;;;;14.12;69.18;101087.44;5067716;28;20296;-81
2021/09/19 09:12:07;;;;;;;5.13;4.03;;;;;;;14.10;69.03;101083.16;5068015;28;20210;-81
2021/09/19 09:14:41;;;;;;;7.70;4.13;;;;;;;14.08;69.05;101087.75;5068188;28;20209;-81
2021/09/19 09:17:16;;;;;;;5.80;4.67;;;;;;;14.05;68.79;101083.47;5065013;28;20841;-84
2021/09/19 09:19:45;;;;;;;6.57;4.33;;;;;;;14.03;68.67;101088.06;5065189;28;20288;-82
2021/09/19 09:22:14;;;;;;;5.43;4.40;;;;;;;14.03;68.74;101098.78;5056710;28;20342;-82
2021/09/19 09:24:43;;;;;;;5.00;4.00;;;;;;;14.03;69.33;101088.06;5057706;28;20201;-81
2021/09/19 09:27:24;;;;;;;4.70;4.13;;;;;;;14.07;69.14;101092.25;5071300;28;20228;-83
2021/09/19 09:30:11;;;;;;;4.50;4.10;;;;;;;14.09;69.40;101093.00;5062943;28;20300;-83
2021/09/19 09:32:52;;;;;;;6.07;4.07;;;;;;;14.10;69.10;101094.72;5066842;28;20629;-82
2021/09/19 09:35:19;;;;;;;6.17;4.10;;;;;;;14.11;69.39;101091.09;5069537;28;20205;-82
2021/09/19 09:37:48;;;;;;;6.90;4.60;;;;;;;14.15;70.17;101091.72;5058233;28;20227;-82
2021/09/19 09:40:17;;;;;;;5.03;4.50;;;;;;;14.18;69.90;101091.47;5066180;28;20304;-82
2021/09/19 09:43:02;;;;;;;5.73;4.50;;;;;;;14.24;70.46;101091.06;5058412;28;20473;-81
2021/09/19 09:45:31;;;;;;;8.73;4.57;;;;;;;14.30;70.39;101089.78;5064867;28;20632;-81
2021/09/19 09:47:58;;;;;;;8.03;4.73;;;;;;;14.30;70.12;101092.44;5080736;28;20236;-82
2021/09/19 09:50:26;;;;;;;4.73;4.13;;;;;;;14.32;70.22;101096.72;5072692;28;20211;-82
2021/09/19 09:53:08;;;;;;;5.40;4.37;;;;;;;14.35;70.33;101091.13;5065976;28;20197;-81
2021/09/19 09:55:34;;;;;;;4.77;3.80;;;;;;;14.39;69.36;101089.94;5058592;28;20209;-83
2021/09/19 09:58:07;;;;;;;4.37;3.63;;;;;;;14.39;69.09;101089.94;5067281;28;20598;-83
2021/09/19 10:00:35;;;;;;;4.00;3.40;;;;;;;14.41;68.77;101089.88;5070667;28;20258;-84
2021/09/19 10:03:04;;;;;;;4.37;3.20;;;;;;;14.38;68.24;101080.19;5063829;28;20699;-82
2021/09/19 10:05:30;;;;;;;4.57;3.07;;;;;;;14.37;67.63;101081.16;5065148;28;20197;-82
2021/09/19 10:07:59;;;;;;;4.50;2.80;;;;;;;14.38;67.62;101082.88;5080273;28;20307;-83
2021/09/19 10:10:28;;;;;;;3.17;2.53;;;;;;;14.39;67.13;101095.31;5079703;28;20215;-83
2021/09/19 10:12:56;;;;;;;4.30;2.80;;;;;;;14.41;66.68;101088.06;5068945;28;20214;-82
2021/09/19 10:15:24;;;;;;;4.23;2.93;;;;;;;14.40;66.74;101080.97;5060068;28;20275;-82
2021/09/19 10:17:51;;;;;;;5.87;3.40;;;;;;;14.42;66.57;101081.72;5066612;28;20278;-81
2021/09/19 10:20:21;;;;;;;4.03;2.67;;;;;;;14.48;66.46;101088.47;5075433;28;20201;-82
2021/09/19 10:22:52;;;;;;;3.93;2.80;;;;;;;14.51;66.40;101093.63;5068789;28;20230;-81
2021/09/19 10:25:35;;;;;;;6.30;3.70;;;;;;;14.52;66.39;101089.94;5071498;28;20202;-82
2021/09/19 10:28:23;;;;;;;4.70;3.00;;;;;;;14.51;66.38;101078.34;5072939;28;20607;-82
2021/09/19 10:31:15;;;;;;;3.87;2.60;;;;;;;14.50;66.07;101091.91;5075590;28;20288;-81
2021/09/19 10:33:43;;;;;;;3.33;2.70;;;;;;;14.48;65.86;101086.66;5062936;28;20198;-81
2021/09/19 10:36:12;;;;;;;3.70;2.93;;;;;;;14.50;65.72;101087.41;5070353;28;20273;-81
2021/09/19 10:38:41;;;;;;;3.23;2.80;;;;;;;14.52;66.24;101084.56;5069506;28;20209;-81
2021/09/19 10:41:16;;;;;;;3.33;2.83;;;;;;;14.56;65.98;101076.22;5069637;28;20213;-81
2021/09/19 10:43:53;;;;;;;3.27;2.63;;;;;;;14.62;65.99;101082.09;5072129;28;20220;-81
2021/09/19 10:46:38;;;;;;;3.43;2.87;;;;;;;14.64;65.50;101077.47;5067898;28;20210;-80
2021/09/19 10:49:14;;;;;;;3.33;2.10;;;;;;;14.67;65.03;101080.81;5073233;28;20304;-80
2021/09/19 10:52:18;;;;;;;3.60;2.73;;;;;;;14.65;64.65;101080.06;5067706;28;20207;-83
2021/09/19 10:54:48;;;;;;;2.50;2.30;;;;;;;14.65;64.16;101080.06;5064711;28;20196;-81
2021/09/19 10:57:18;;;;;;;3.60;2.27;;;;;;;14.62;63.79;101071.38;5063136;28;20240;-80
2021/09/19 11:00:13;;;;;;;3.00;2.00;;;;;;;14.56;63.22;101076.22;5069581;28;20308;-81
2021/09/19 11:02:42;;;;;;;3.03;2.00;;;;;;;14.56;63.12;101083.38;5060327;28;20232;-81
2021/09/19 11:05:24;;;;;;;3.60;2.60;;;;;;;14.57;63.25;101082.44;5062444;28;20296;-82
2021/09/19 11:07:52;;;;;;;3.10;2.30;;;;;;;14.56;62.92;101083.38;5071026;28;20216;-81
2021/09/19 11:10:18;;;;;;;4.27;3.03;;;;;;;14.57;63.17;101085.97;5066570;28;20295;-81
2021/09/19 11:12:50;;;;;;;3.50;2.47;;;;;;;14.62;63.17;101084.78;5070249;28;20197;-82
2021/09/19 11:15:23;;;;;;;4.43;2.63;;;;;;;14.64;63.68;101067.63;5065516;28;20212;-83
2021/09/19 11:17:51;;;;;;;3.73;2.43;;;;;;;14.66;63.75;101070.19;5065931;28;20225;-83
2021/09/19 11:20:24;;;;;;;4.80;2.50;;;;;;;14.69;63.69;101073.47;5066811;28;20684;-82
2021/09/19 11:22:52;;;;;;;4.00;2.40;;;;;;;14.69;63.54;101067.28;5070108;28;20221;-83
2021/09/19 11:25:21;;;;;;;2.57;2.37;;;;;;;14.68;63.48;101069.09;5070240;28;20296;-83
2021/09/19 11:27:51;;;;;;;3.67;2.67;;;;;;;14.67;63.83;101066.53;5063748;28;20733;-85
2021/09/19 11:30:21;;;;;;;4.93;2.77;;;;;;;14.69;63.79;101069.97;5065316;28;20291;-82